createdAt,value
2019-02-09T00:00:50.354Z,60495.44
2019-02-09T00:03:18.744Z,60491.38
2019-02-09T00:05:47.360Z,60526.95
2019-02-09T00:08:15.832Z,60485.28
2019-02-09T00:10:44.306Z,60485.28
2019-02-09T00:13:13.038Z,60507.64
2019-02-09T00:15:41.660Z,60507.64
2019-02-09T00:18:10.446Z,60487.31
2019-02-09T00:20:38.921Z,60489.34
2019-02-09T00:23:07.800Z,60504.59
2019-02-09T00:25:36.193Z,60495.44
2019-02-09T00:28:05.229Z,60495.44
2019-02-09T00:30:34.057Z,60490.36
2019-02-09T00:33:02.505Z,60490.36
2019-02-09T00:35:31.162Z,60491.38
2019-02-09T00:37:59.561Z,60526.95
2019-02-09T00:40:29.710Z,60488.33
2019-02-09T00:42:58.463Z,60502.55
2019-02-09T00:45:28.255Z,60502.55
2019-02-09T00:47:56.717Z,60525.93
2019-02-09T00:50:25.629Z,60511.70
2019-02-09T00:52:54.248Z,60525.93
2019-02-09T00:55:26.688Z,60497.47
2019-02-09T00:57:55.320Z,60519.83
2019-02-09T01:00:31.782Z,60505.60
2019-02-09T01:03:00.604Z,60505.60
2019-02-09T01:05:37.982Z,60527.96
2019-02-09T01:08:06.496Z,60527.96
2019-02-09T01:10:34.947Z,60514.75
2019-02-09T01:13:04.073Z,60517.80
2019-02-09T01:15:32.471Z,60523.89
2019-02-09T01:18:01.344Z,60495.44
2019-02-09T01:20:30.673Z,60495.44
2019-02-09T01:23:00.293Z,60533.04
2019-02-09T01:25:28.924Z,60533.04
2019-02-09T01:27:57.388Z,60531.01
2019-02-09T01:30:27.489Z,60513.73
2019-02-09T01:32:56.316Z,60485.28
2019-02-09T01:35:25.640Z,60510.68
2019-02-09T01:37:54.696Z,60523.89
2019-02-09T01:40:25.457Z,60526.95
2019-02-09T01:42:54.769Z,60495.44
2019-02-09T01:45:33.302Z,60524.91
2019-02-09T01:48:02.036Z,60481.21
2019-02-09T01:50:34.014Z,60494.43
2019-02-09T01:53:02.405Z,60494.43
2019-02-09T01:55:30.866Z,60504.59
2019-02-09T01:58:00.190Z,60522.88
2019-02-09T02:00:33.746Z,60501.54
2019-02-09T02:03:02.431Z,60543.20
2019-02-09T02:05:31.151Z,60497.47
2019-02-09T02:07:59.786Z,60523.89
2019-02-09T02:10:33.657Z,60517.80
2019-02-09T02:13:03.104Z,60497.47
2019-02-09T02:15:32.665Z,60490.36
2019-02-09T02:18:01.467Z,60540.15
2019-02-09T02:20:31.991Z,60540.15
2019-02-09T02:23:00.589Z,60527.96
2019-02-09T02:25:28.984Z,60537.11
2019-02-09T02:27:57.382Z,60517.80
2019-02-09T02:30:34.613Z,60517.80
2019-02-09T02:33:03.502Z,60501.54
2019-02-09T02:35:32.183Z,60501.54
2019-02-09T02:38:01.119Z,60533.04
2019-02-09T02:40:30.376Z,60515.77
2019-02-09T02:42:58.792Z,60532.02
2019-02-09T02:45:27.752Z,60541.17
2019-02-09T02:47:56.262Z,60486.29
2019-02-09T02:50:25.212Z,60517.80
2019-02-09T02:52:54.118Z,60537.11
2019-02-09T02:55:31.851Z,60522.88
2019-02-09T02:58:00.498Z,60516.78
2019-02-09T03:00:33.021Z,60531.01
2019-02-09T03:03:02.482Z,60546.25
2019-02-09T03:05:30.978Z,60517.80
2019-02-09T03:07:59.467Z,60537.11
2019-02-09T03:10:27.905Z,60537.11
2019-02-09T03:12:56.379Z,60537.11
2019-02-09T03:15:30.527Z,60542.19
2019-02-09T03:17:59.478Z,60556.41
2019-02-09T03:20:28.176Z,60523.89
2019-02-09T03:22:56.559Z,60527.96
2019-02-09T03:25:30.527Z,60563.53
2019-02-09T03:27:59.070Z,60514.75
2019-02-09T03:30:27.791Z,60514.75
2019-02-09T03:32:56.647Z,60521.86
2019-02-09T03:35:25.682Z,60557.43
2019-02-09T03:37:54.059Z,60557.43
2019-02-09T03:40:29.041Z,60547.27
2019-02-09T03:42:57.458Z,60515.77
2019-02-09T03:45:28.608Z,60515.77
2019-02-09T03:47:57.436Z,60544.22
2019-02-09T03:50:28.383Z,60537.11
2019-02-09T03:52:56.965Z,60544.22
2019-02-09T03:55:25.364Z,60517.80
2019-02-09T03:57:53.822Z,60517.80
2019-02-09T04:00:24.258Z,60520.85
2019-02-09T04:02:53.248Z,60520.85
2019-02-09T04:05:21.701Z,60516.78
2019-02-09T04:07:50.745Z,60516.78
2019-02-09T04:10:21.789Z,60526.95
2019-02-09T04:12:50.179Z,60532.02
2019-02-09T04:15:20.590Z,60532.02
2019-02-09T04:17:49.184Z,60519.83
2019-02-09T04:20:19.760Z,60533.04
2019-02-09T04:22:48.480Z,60552.35
2019-02-09T04:25:19.223Z,60525.93
2019-02-09T04:27:47.665Z,60508.65
2019-02-09T04:30:19.171Z,60533.04
2019-02-09T04:32:47.551Z,60533.04
2019-02-09T04:35:16.072Z,60517.80
2019-02-09T04:37:44.537Z,60509.67
2019-02-09T04:40:21.503Z,60502.55
2019-02-09T04:42:49.980Z,60502.55
2019-02-09T04:45:19.310Z,60524.91
2019-02-09T04:47:47.978Z,60529.99
2019-02-09T04:50:17.531Z,60515.77
2019-02-09T04:52:45.911Z,60515.77
2019-02-09T04:55:20.234Z,60524.91
2019-02-09T04:57:49.043Z,60506.62
2019-02-09T05:00:33.012Z,60506.62
2019-02-09T05:03:01.487Z,60533.04
2019-02-09T05:05:31.139Z,60533.04
2019-02-09T05:07:59.591Z,60528.98
2019-02-09T05:10:28.162Z,60524.91
2019-02-09T05:12:56.623Z,60516.78
2019-02-09T05:15:25.085Z,60533.04
2019-02-09T05:17:54.001Z,60534.06
2019-02-09T05:20:25.281Z,60534.06
2019-02-09T05:22:55.270Z,60541.17
2019-02-09T05:25:23.742Z,60557.43
2019-02-09T05:27:52.117Z,60547.27
2019-02-09T05:30:23.363Z,60547.27
2019-02-09T05:32:51.828Z,60521.86
2019-02-09T05:35:20.235Z,60512.72
2019-02-09T05:37:48.837Z,60512.72
2019-02-09T05:40:27.478Z,60519.83
2019-02-09T05:42:55.946Z,60519.83
2019-02-09T05:45:30.230Z,60547.27
2019-02-09T05:47:58.693Z,60531.01
2019-02-09T05:50:27.342Z,60562.51
2019-02-09T05:52:55.735Z,60562.51
2019-02-09T05:55:24.214Z,60537.11
2019-02-09T05:57:53.125Z,60516.78
2019-02-09T06:00:40.808Z,60547.27
2019-02-09T06:03:09.666Z,60547.27
2019-02-09T06:05:38.077Z,60552.35
2019-02-09T06:08:06.735Z,60552.35
2019-02-09T06:10:35.204Z,60508.65
2019-02-09T06:13:04.309Z,60557.43
2019-02-09T06:15:32.692Z,60534.06
2019-02-09T06:18:01.402Z,60509.67
2019-02-09T06:20:30.523Z,60509.67
2019-02-09T06:22:59.254Z,60501.54
2019-02-09T06:25:27.898Z,60533.04
2019-02-09T06:27:56.419Z,60550.32
2019-02-09T06:30:30.136Z,60550.32
2019-02-09T06:32:58.759Z,60550.32
2019-02-09T06:35:27.508Z,60547.27
2019-02-09T06:37:56.411Z,60538.12
2019-02-09T06:40:25.623Z,60521.86
2019-02-09T06:42:54.089Z,60520.85
2019-02-09T06:45:27.577Z,60520.85
2019-02-09T06:48:15.392Z,60510.68
2019-02-09T06:50:44.097Z,60527.96
2019-02-09T06:53:12.496Z,60531.01
2019-02-09T06:55:40.930Z,60543.20
2019-02-09T06:58:09.423Z,60515.77
2019-02-09T07:00:37.836Z,60527.96
2019-02-09T07:03:06.304Z,60524.91
2019-02-09T07:05:34.699Z,60524.91
2019-02-09T07:08:03.555Z,60512.72
2019-02-09T07:10:31.939Z,60568.61
2019-02-09T07:13:00.322Z,60519.83
2019-02-09T07:15:30.767Z,60519.83
2019-02-09T07:17:59.156Z,60559.46
2019-02-09T07:20:27.600Z,60539.14
2019-02-09T07:22:56.052Z,60524.91
2019-02-09T07:25:24.867Z,60524.91
2019-02-09T07:27:53.588Z,60498.49
2019-02-09T07:30:24.755Z,60546.25
2019-02-09T07:32:53.894Z,60546.25
2019-02-09T07:35:22.374Z,60526.95
2019-02-09T07:37:51.107Z,60533.04
2019-02-09T07:40:24.689Z,60538.12
2019-02-09T07:42:53.515Z,60503.57
2019-02-09T07:45:24.466Z,60503.57
2019-02-09T07:47:52.980Z,60531.01
2019-02-09T07:50:23.785Z,60531.01
2019-02-09T07:52:52.230Z,60538.12
2019-02-09T07:55:21.444Z,60525.93
2019-02-09T07:57:50.223Z,60489.34
2019-02-09T08:00:35.110Z,60489.34
2019-02-09T08:03:03.813Z,60521.86
2019-02-09T08:05:33.349Z,60519.83
2019-02-09T08:08:01.862Z,60532.02
2019-02-09T08:10:35.441Z,60532.02
2019-02-09T08:27:09.249Z,60547.27
2019-02-09T08:29:37.641Z,60518.82
2019-02-09T08:32:12.521Z,60547.27
2019-02-09T08:34:36.827Z,60531.01
2019-02-09T08:37:05.279Z,60531.01
2019-02-09T08:39:33.670Z,60527.96
2019-02-09T08:42:02.057Z,60544.22
2019-02-09T08:44:30.443Z,60523.89
2019-02-09T08:46:58.866Z,60523.89
2019-02-09T08:49:27.269Z,60497.47
2019-02-09T08:51:55.648Z,60512.72
2019-02-09T08:54:24.042Z,60517.80
2019-02-09T08:56:52.428Z,60517.80
2019-02-09T08:59:20.860Z,60487.31
2019-02-09T09:01:49.310Z,60510.68
2019-02-09T09:04:17.689Z,60510.68
2019-02-09T09:06:46.108Z,60503.57
2019-02-09T09:09:14.498Z,60497.47
2019-02-09T09:11:43.157Z,60497.47
2019-02-09T09:14:11.747Z,60500.52
2019-02-09T09:16:40.127Z,60515.77
2019-02-09T09:19:08.511Z,60490.36
2019-02-09T09:21:36.902Z,60516.78
2019-02-09T09:24:05.361Z,60491.38
2019-02-09T09:26:33.933Z,60514.75
2019-02-09T09:29:02.323Z,60471.05
2019-02-09T09:31:30.868Z,60516.78
2019-02-09T09:33:59.383Z,60487.31
2019-02-09T09:36:27.774Z,60509.67
2019-02-09T09:38:56.196Z,60510.68
2019-02-09T09:41:24.579Z,60484.26
2019-02-09T09:43:53.100Z,60515.77
2019-02-09T09:46:21.618Z,60510.68
2019-02-09T09:48:50.061Z,60510.68
2019-02-09T09:51:18.443Z,60496.46
2019-02-09T09:53:46.843Z,60462.92
2019-02-09T09:56:15.267Z,60520.85
2019-02-09T09:58:43.651Z,60490.36
2019-02-09T10:01:12.150Z,60473.09
2019-02-09T10:03:40.812Z,60488.33
2019-02-09T10:06:09.192Z,60462.92
2019-02-09T10:08:37.820Z,60497.47
2019-02-09T10:11:06.236Z,60482.23
2019-02-09T10:13:34.960Z,60507.64
2019-02-09T10:16:03.351Z,60484.26
2019-02-09T10:18:31.844Z,60508.65
2019-02-09T10:21:00.473Z,60470.04
2019-02-09T10:23:28.891Z,60501.54
2019-02-09T10:25:57.890Z,60495.44
2019-02-09T10:28:26.944Z,60497.47
2019-02-09T10:30:58.816Z,60482.23
2019-02-09T10:33:27.550Z,60483.25
2019-02-09T10:35:56.377Z,60491.38
2019-02-09T10:38:24.774Z,60499.50
2019-02-09T10:40:53.201Z,60497.47
2019-02-09T10:43:21.544Z,60494.43
2019-02-09T10:45:49.938Z,60491.38
2019-02-09T10:48:18.313Z,60514.75
2019-02-09T10:50:47.594Z,60446.66
2019-02-09T10:53:15.976Z,60506.62
2019-02-09T10:55:44.555Z,60500.52
2019-02-09T10:58:12.940Z,60479.18
2019-02-09T11:00:47.072Z,60505.60
2019-02-09T11:03:15.828Z,60465.97
2019-02-09T11:05:44.414Z,60519.83
2019-02-09T11:08:12.927Z,60489.34
2019-02-09T11:10:41.558Z,60514.75
2019-02-09T11:13:10.180Z,60482.23
2019-02-09T11:15:38.557Z,60486.29
2019-02-09T11:18:07.590Z,60535.07
2019-02-09T11:20:35.969Z,60487.31
2019-02-09T11:23:04.888Z,60476.13
2019-02-09T11:25:33.442Z,60484.26
2019-02-09T11:28:01.829Z,60481.21
2019-02-09T11:30:30.448Z,60489.34
2019-02-09T11:33:01.872Z,60486.29
2019-02-09T11:35:30.053Z,60482.23
2019-02-09T11:37:58.438Z,60452.76
2019-02-09T11:40:32.179Z,60471.05
2019-02-09T11:43:01.421Z,60511.70
2019-02-09T11:45:31.839Z,60516.78
2019-02-09T11:48:00.619Z,60482.23
2019-02-09T11:50:29.010Z,60507.64
2019-02-09T11:52:57.651Z,60462.92
2019-02-09T11:55:26.037Z,60481.21
2019-02-09T11:57:54.729Z,60473.09
2019-02-09T12:00:34.994Z,60464.96
2019-02-09T12:03:13.890Z,60474.10
2019-02-09T12:05:34.489Z,60482.23
2019-02-09T12:08:02.999Z,60500.52
2019-02-09T12:10:31.658Z,60460.89
2019-02-09T12:13:00.044Z,60473.09
2019-02-09T12:15:31.125Z,60474.10
2019-02-09T12:17:59.580Z,60492.39
2019-02-09T12:20:28.509Z,60468.00
2019-02-09T12:22:56.963Z,60482.23
2019-02-09T12:25:38.978Z,60473.09
2019-02-09T12:28:10.145Z,60473.09
2019-02-09T12:30:40.937Z,60479.18
2019-02-09T12:33:11.457Z,60481.21
2019-02-09T12:35:41.170Z,60456.82
2019-02-09T12:38:10.188Z,60476.13
2019-02-09T12:40:40.559Z,60465.97
2019-02-09T12:43:09.191Z,60452.76
2019-02-09T12:45:42.075Z,60453.78
2019-02-09T12:48:11.933Z,60468.00
2019-02-09T12:50:40.488Z,60450.73
2019-02-09T12:53:09.079Z,60491.38
2019-02-09T12:55:37.885Z,60481.21
2019-02-09T12:58:07.122Z,60479.18
2019-02-09T13:00:39.509Z,60481.21
2019-02-09T13:03:10.527Z,60468.00
2019-02-09T13:05:39.016Z,60461.91
2019-02-09T13:08:07.400Z,60461.91
2019-02-09T13:10:35.892Z,60476.13
2019-02-09T13:13:06.329Z,60455.81
2019-02-09T13:15:35.615Z,60466.99
2019-02-09T13:18:04.480Z,60471.05
2019-02-09T13:20:33.935Z,60488.33
2019-02-09T13:23:02.332Z,60479.18
2019-02-09T13:25:31.219Z,60452.76
2019-02-09T13:27:59.590Z,60475.12
2019-02-09T13:30:36.362Z,60484.26
2019-02-09T13:33:08.006Z,60456.82
2019-02-09T13:35:36.778Z,60466.99
2019-02-09T13:38:05.342Z,60476.13
2019-02-09T13:40:33.885Z,60450.73
2019-02-09T13:43:02.331Z,60456.82
2019-02-09T13:45:33.522Z,60449.71
2019-02-09T13:48:02.298Z,60436.50
2019-02-09T13:50:32.427Z,60450.73
2019-02-09T13:53:00.832Z,60459.87
2019-02-09T13:55:29.300Z,60474.10
2019-02-09T13:57:57.690Z,60479.18
2019-02-09T14:00:31.349Z,60472.07
2019-02-09T14:03:00.630Z,60469.02
2019-02-09T14:05:29.635Z,60443.61
2019-02-09T14:07:59.096Z,60469.02
2019-02-09T14:10:30.822Z,60452.76
2019-02-09T14:12:59.466Z,60441.58
2019-02-09T14:15:37.027Z,60447.68
2019-02-09T14:18:08.246Z,60462.92
2019-02-09T14:20:36.765Z,60466.99
2019-02-09T14:23:06.126Z,60449.71
2019-02-09T14:25:34.744Z,60475.12
2019-02-09T14:28:03.680Z,60441.58
2019-02-09T14:30:37.474Z,60461.91
2019-02-09T14:33:08.597Z,60482.23
2019-02-09T14:35:37.332Z,60490.36
2019-02-09T14:38:06.158Z,60465.97
2019-02-09T14:40:34.819Z,60443.61
2019-02-09T14:43:03.742Z,60477.15
2019-02-09T14:45:40.460Z,60481.21
2019-02-09T14:48:09.047Z,60461.91
2019-02-09T14:50:37.948Z,60463.94
2019-02-09T14:53:08.344Z,60464.96
2019-02-09T14:55:39.314Z,60441.58
2019-02-09T14:58:08.851Z,60468.00
2019-02-09T15:00:45.700Z,60472.07
2019-02-09T15:03:15.431Z,60469.02
2019-02-09T15:05:43.830Z,60470.04
2019-02-09T15:08:12.424Z,60440.57
2019-02-09T15:10:40.807Z,60458.86
2019-02-09T15:13:12.127Z,60458.86
2019-02-09T15:15:58.854Z,60477.15
2019-02-09T15:18:27.238Z,60442.60
2019-02-09T15:21:11.288Z,60449.71
2019-02-09T15:23:39.668Z,60448.70
2019-02-09T15:26:08.319Z,60477.15
2019-02-09T15:28:37.084Z,60466.99
2019-02-09T15:31:06.220Z,60482.23
2019-02-09T15:33:34.599Z,60469.02
2019-02-09T15:36:03.060Z,60442.60
2019-02-09T15:38:31.452Z,60475.12
2019-02-09T15:40:59.845Z,60466.99
2019-02-09T15:43:28.221Z,60466.99
2019-02-09T15:45:56.650Z,60445.65
2019-02-09T15:48:25.039Z,60461.91
2019-02-09T15:50:53.435Z,60443.61
2019-02-09T15:53:21.878Z,60464.96
2019-02-09T15:55:50.367Z,60476.13
2019-02-09T15:58:19.137Z,60461.91
2019-02-09T16:00:48.047Z,60468.00
2019-02-09T16:03:16.641Z,60468.00
2019-02-09T16:05:45.296Z,60455.81
2019-02-09T16:08:14.063Z,60474.10
2019-02-09T16:10:42.529Z,60488.33
2019-02-09T16:13:10.929Z,60488.33
2019-02-09T16:15:39.315Z,60472.07
2019-02-09T16:18:08.062Z,60480.20
2019-02-09T16:20:36.911Z,60473.09
2019-02-09T16:23:05.883Z,60487.31
2019-02-09T16:25:34.639Z,60499.50
2019-02-09T16:28:03.087Z,60433.45
2019-02-09T16:30:32.877Z,60466.99
2019-02-09T16:33:01.334Z,60484.26
2019-02-09T16:35:31.853Z,60477.15
2019-02-09T16:38:00.350Z,60499.50
2019-02-09T16:40:31.942Z,60494.43
2019-02-09T16:43:00.708Z,60478.16
2019-02-09T16:45:36.902Z,60498.49
2019-02-09T16:48:07.946Z,60433.45
2019-02-09T16:50:37.026Z,60455.81
2019-02-09T16:53:06.153Z,60454.79
2019-02-09T16:55:34.603Z,60454.79
2019-02-09T16:58:03.138Z,60446.66
2019-02-09T17:00:37.305Z,60452.76
2019-02-09T17:03:07.138Z,60462.92
2019-02-09T17:05:35.910Z,60470.04
2019-02-09T17:08:04.942Z,60466.99
2019-02-09T17:10:33.414Z,60475.12
2019-02-09T17:13:01.922Z,60451.75
2019-02-09T17:15:30.754Z,60464.96
2019-02-09T17:17:59.169Z,60488.33
2019-02-09T17:20:27.902Z,60462.92
2019-02-09T17:22:56.295Z,60480.20
2019-02-09T17:25:26.170Z,60444.63
2019-02-09T17:27:54.567Z,60460.89
2019-02-09T17:30:28.288Z,60468.00
2019-02-09T17:32:56.667Z,60471.05
2019-02-09T17:35:26.937Z,60482.23
2019-02-09T17:37:57.438Z,60482.23
2019-02-09T17:40:37.362Z,60461.91
2019-02-09T17:43:07.097Z,60479.18
2019-02-09T17:45:44.972Z,60453.78
2019-02-09T17:48:13.482Z,60476.13
2019-02-09T17:50:41.871Z,60461.91
2019-02-09T17:53:10.250Z,60459.87
2019-02-09T17:55:38.637Z,60446.66
2019-02-09T17:58:07.208Z,60468.00
2019-02-09T18:00:37.660Z,60465.97
2019-02-09T18:03:06.118Z,60470.04
2019-02-09T18:05:34.819Z,60462.92
2019-02-09T18:08:03.601Z,60464.96
2019-02-09T18:10:32.168Z,60480.20
2019-02-09T18:13:00.618Z,60461.91
2019-02-09T18:15:28.996Z,60475.12
2019-02-09T18:17:57.439Z,60504.59
2019-02-09T18:20:25.833Z,60437.52
2019-02-09T18:22:54.216Z,60452.76
2019-02-09T18:25:23.361Z,60454.79
2019-02-09T18:27:51.917Z,60482.23
2019-02-09T18:30:27.960Z,60483.25
2019-02-09T18:32:56.342Z,60458.86
2019-02-09T18:35:24.738Z,60471.05
2019-02-09T18:37:53.194Z,60471.05
2019-02-09T18:40:28.348Z,60451.75
2019-02-09T18:42:56.920Z,60490.36
2019-02-09T18:45:30.935Z,60493.41
2019-02-09T18:47:59.427Z,60473.09
2019-02-09T18:50:32.156Z,60457.84
2019-02-09T18:53:01.966Z,60449.71
2019-02-09T18:55:31.345Z,60449.71
2019-02-09T18:58:00.012Z,60481.21
2019-02-09T19:00:42.479Z,60481.21
2019-02-09T19:03:11.306Z,60488.33
2019-02-09T19:05:39.819Z,60507.64
2019-02-09T19:08:09.413Z,60502.55
2019-02-09T19:10:38.121Z,60483.25
2019-02-09T19:13:06.782Z,60483.25
2019-02-09T19:15:35.677Z,60477.15
2019-02-09T19:18:05.701Z,60502.55
2019-02-09T19:20:43.042Z,60502.55
2019-02-09T19:23:11.561Z,60490.36
2019-02-09T19:25:40.021Z,60465.97
2019-02-09T19:28:08.624Z,60478.16
2019-02-09T19:30:37.082Z,60476.13
2019-02-09T19:33:07.106Z,60476.13
2019-02-09T19:35:35.643Z,60462.92
2019-02-09T19:38:04.503Z,60469.02
2019-02-09T19:40:32.964Z,60476.13
2019-02-09T19:43:01.407Z,60469.02
2019-02-09T19:45:40.268Z,60469.02
2019-02-09T19:48:09.265Z,60457.84
2019-02-09T19:50:38.053Z,60478.16
2019-02-09T19:53:07.012Z,60458.86
2019-02-09T19:55:38.465Z,60509.67
2019-02-09T19:58:07.327Z,60466.99
2019-02-09T20:00:41.950Z,60466.99
2019-02-09T20:03:10.635Z,60484.26
2019-02-09T20:05:39.021Z,60470.04
2019-02-09T20:08:09.424Z,60450.73
2019-02-09T20:10:44.181Z,60476.13
2019-02-09T20:13:14.194Z,60488.33
2019-02-09T20:15:42.734Z,60490.36
2019-02-09T20:18:11.811Z,60490.36
2019-02-09T20:20:46.771Z,60492.39
2019-02-09T20:23:10.773Z,60476.13
2019-02-09T20:25:39.222Z,60476.13
2019-02-09T20:28:07.866Z,60482.23
2019-02-09T20:30:38.376Z,60458.86
2019-02-09T20:33:07.309Z,60458.86
2019-02-09T20:35:36.040Z,60472.07
2019-02-09T20:38:06.573Z,60472.07
2019-02-09T20:40:37.212Z,60481.21
2019-02-09T20:43:08.036Z,60485.28
2019-02-09T20:45:36.695Z,60485.28
2019-02-09T20:48:06.505Z,60463.94
2019-02-09T20:50:34.976Z,60486.29
2019-02-09T20:53:03.439Z,60486.29
2019-02-09T20:55:31.832Z,60494.43
2019-02-09T20:58:00.216Z,60487.31
2019-02-09T21:00:32.767Z,60487.31
2019-02-09T21:03:01.170Z,60468.00
2019-02-09T21:05:36.103Z,60468.00
2019-02-09T21:08:00.028Z,60494.43
2019-02-09T21:10:34.299Z,60468.00
2019-02-09T21:13:02.759Z,60468.00
2019-02-09T21:15:31.500Z,60475.12
2019-02-09T21:17:59.892Z,60475.12
2019-02-09T21:20:28.368Z,60481.21
2019-02-09T21:22:56.749Z,60504.59
2019-02-09T21:25:30.290Z,60489.34
2019-02-09T21:27:59.122Z,60486.29
2019-02-09T21:30:28.054Z,60482.23
2019-02-09T21:32:57.718Z,60486.29
2019-02-09T21:35:26.351Z,60486.29
2019-02-09T21:37:54.806Z,60485.28
2019-02-09T21:40:25.042Z,60511.70
2019-02-09T21:42:53.596Z,60514.75
2019-02-09T21:45:23.630Z,60514.75
2019-02-09T21:47:52.258Z,60477.15
2019-02-09T21:50:29.425Z,60478.16
2019-02-09T21:52:57.824Z,60483.25
2019-02-09T21:55:26.546Z,60483.25
2019-02-09T21:57:55.156Z,60494.43
2019-02-09T22:00:26.044Z,60494.43
2019-02-09T22:02:55.511Z,60478.16
2019-02-09T22:05:23.955Z,60478.16
2019-02-09T22:07:52.383Z,60486.29
2019-02-09T22:10:29.421Z,60465.97
2019-02-09T22:12:54.251Z,60484.26
2019-02-09T22:15:24.865Z,60510.68
2019-02-09T22:17:53.295Z,60495.44
2019-02-09T22:20:22.620Z,60504.59
2019-02-09T22:22:51.857Z,60514.75
2019-02-09T22:25:24.825Z,60514.75
2019-02-09T22:27:53.517Z,60481.21
2019-02-09T22:30:23.950Z,60481.21
2019-02-09T22:32:52.828Z,60488.33
2019-02-09T22:35:21.494Z,60488.33
2019-02-09T22:37:50.336Z,60466.99
2019-02-09T22:40:20.804Z,60510.68
2019-02-09T22:42:49.496Z,60510.68
2019-02-09T22:45:20.211Z,60496.46
2019-02-09T22:47:48.928Z,60504.59
2019-02-09T22:50:25.819Z,60504.59
2019-02-09T22:52:54.784Z,60495.44
2019-02-09T22:55:24.303Z,60504.59
2019-02-09T22:57:52.902Z,60503.57
2019-02-09T23:00:57.962Z,60507.64
2019-02-09T23:03:32.085Z,60488.33
2019-02-09T23:06:12.712Z,60488.33
2019-02-09T23:08:46.821Z,60504.59
2019-02-09T23:11:15.808Z,60504.59
2019-02-09T23:13:44.188Z,60510.68
2019-02-09T23:16:12.577Z,60492.39
2019-02-09T23:18:41.145Z,60492.39
2019-02-09T23:21:09.837Z,60492.39
2019-02-09T23:23:38.339Z,60492.39
2019-02-09T23:26:07.003Z,60528.98
2019-02-09T23:28:35.689Z,60497.47
2019-02-09T23:31:04.149Z,60489.34
2019-02-09T23:33:32.957Z,60489.34
2019-02-09T23:36:01.643Z,60491.38
2019-02-09T23:38:30.331Z,60505.60
2019-02-09T23:40:58.732Z,60487.31
2019-02-09T23:43:27.409Z,60487.31
2019-02-09T23:45:56.112Z,60502.55
2019-02-09T23:48:24.773Z,60502.55
2019-02-09T23:50:53.464Z,60518.82
2019-02-09T23:53:21.874Z,60488.33
2019-02-09T23:55:50.255Z,60488.33
2019-02-09T23:58:18.714Z,60504.59
